createdAt,value
2022-10-09T00:00:20.841Z,1.70
2022-10-09T00:02:47.506Z,1.70
2022-10-09T00:05:13.591Z,1.80
2022-10-09T00:07:39.881Z,1.80
2022-10-09T00:10:06.230Z,1.97
2022-10-09T00:12:36.244Z,1.80
2022-10-09T00:15:05.348Z,2.00
2022-10-09T00:17:31.703Z,1.80
2022-10-09T00:19:58.934Z,1.83
2022-10-09T00:22:25.270Z,1.90
2022-10-09T00:24:59.098Z,2.00
2022-10-09T00:27:37.960Z,1.83
2022-10-09T00:30:10.236Z,1.73
2022-10-09T00:32:36.573Z,1.97
2022-10-09T00:35:03.914Z,1.90
2022-10-09T00:37:30.227Z,2.10
2022-10-09T00:39:56.603Z,1.70
2022-10-09T00:42:30.679Z,1.70
2022-10-09T00:44:59.950Z,1.90
2022-10-09T00:47:26.249Z,1.70
2022-10-09T00:49:54.931Z,1.70
2022-10-09T00:52:21.317Z,2.03
2022-10-09T00:54:55.476Z,1.70
2022-10-09T00:57:26.753Z,1.90
2022-10-09T01:00:04.875Z,1.80
2022-10-09T01:02:31.243Z,1.80
2022-10-09T01:05:00.211Z,2.00
2022-10-09T01:07:27.095Z,1.80
2022-10-09T01:10:09.919Z,2.00
2022-10-09T01:12:38.265Z,1.90
2022-10-09T01:15:18.536Z,1.87
2022-10-09T01:17:45.584Z,1.80
2022-10-09T01:20:20.733Z,1.80
2022-10-09T01:22:49.695Z,1.80
2022-10-09T01:25:15.782Z,1.80
2022-10-09T01:27:42.124Z,1.70
2022-10-09T01:30:08.464Z,1.80
2022-10-09T01:32:51.860Z,1.63
2022-10-09T01:35:18.085Z,1.70
2022-10-09T01:37:44.420Z,1.70
2022-10-09T01:40:10.821Z,1.90
2022-10-09T01:42:37.158Z,1.90
2022-10-09T01:45:03.497Z,2.07
2022-10-09T01:47:29.849Z,1.60
2022-10-09T01:50:01.099Z,1.70
2022-10-09T01:55:13.341Z,2.20
2022-10-09T01:57:39.717Z,1.63
2022-10-09T02:00:08.116Z,1.90
2022-10-09T02:02:34.553Z,1.90
2022-10-09T02:05:00.798Z,1.90
2022-10-09T02:07:27.163Z,1.80
2022-10-09T02:09:55.871Z,1.83
2022-10-09T02:12:22.207Z,1.80
2022-10-09T02:14:51.128Z,1.90
2022-10-09T02:20:08.335Z,1.90
2022-10-09T02:22:37.634Z,1.90
2022-10-09T02:25:08.579Z,2.00
2022-10-09T02:30:21.733Z,1.90
2022-10-09T02:33:02.002Z,1.87
2022-10-09T02:35:31.584Z,1.80
2022-10-09T02:38:05.340Z,1.97
2022-10-09T02:40:31.696Z,1.90
2022-10-09T02:43:05.903Z,2.20
2022-10-09T02:45:44.957Z,1.90
2022-10-09T02:48:11.321Z,1.87
2022-10-09T02:50:37.644Z,1.90
2022-10-09T02:53:18.939Z,2.10
2022-10-09T02:55:45.236Z,2.03
2022-10-09T02:58:14.408Z,1.80
2022-10-09T03:03:16.354Z,1.80
2022-10-09T03:05:43.722Z,1.77
2022-10-09T03:13:46.262Z,1.93
2022-10-09T03:16:12.677Z,1.60
2022-10-09T03:21:24.302Z,2.10
2022-10-09T03:26:38.081Z,1.80
2022-10-09T03:29:04.372Z,1.67
2022-10-09T03:31:51.913Z,1.80
2022-10-09T03:34:06.619Z,1.90
2022-10-09T03:36:32.920Z,2.00
2022-10-09T03:38:59.252Z,1.73
2022-10-09T03:41:25.593Z,1.80
2022-10-09T03:43:52.623Z,1.97
2022-10-09T03:46:19.687Z,2.00
2022-10-09T03:48:45.969Z,1.70
2022-10-09T03:54:04.162Z,1.90
2022-10-09T03:56:30.549Z,2.10
2022-10-09T03:58:56.844Z,1.70
2022-10-09T04:07:00.233Z,1.80
2022-10-09T04:09:26.566Z,1.80
2022-10-09T04:11:52.918Z,1.70
2022-10-09T04:14:24.434Z,1.70
2022-10-09T04:16:57.503Z,2.00
2022-10-09T04:19:23.852Z,1.73
2022-10-09T04:21:50.198Z,1.90
2022-10-09T04:24:16.565Z,1.63
2022-10-09T04:26:42.939Z,1.70
2022-10-09T04:31:55.642Z,1.70
2022-10-09T04:34:22.047Z,1.97
2022-10-09T04:36:48.320Z,1.60
2022-10-09T04:39:14.658Z,2.00
2022-10-09T04:41:41.007Z,2.20
2022-10-09T04:44:07.341Z,1.63
2022-10-09T04:46:45.660Z,2.20
2022-10-09T04:49:12.020Z,1.90
2022-10-09T04:51:38.357Z,2.17
2022-10-09T04:54:12.718Z,1.90
2022-10-09T04:59:25.500Z,2.03
2022-10-09T05:01:51.876Z,2.00
2022-10-09T05:04:18.215Z,2.17
2022-10-09T05:06:44.579Z,1.90
2022-10-09T05:11:56.088Z,1.77
2022-10-09T05:14:39.634Z,1.93
2022-10-09T05:17:14.273Z,2.07
2022-10-09T05:19:32.332Z,1.90
2022-10-09T05:22:10.996Z,2.00
2022-10-09T05:24:38.144Z,1.87
2022-10-09T05:27:04.494Z,1.80
2022-10-09T05:29:53.401Z,2.07
2022-10-09T05:32:19.747Z,2.00
2022-10-09T05:37:48.764Z,1.90
2022-10-09T05:43:16.601Z,2.03
2022-10-09T05:45:51.936Z,1.93
2022-10-09T05:48:18.314Z,1.97
2022-10-09T05:50:44.675Z,1.70
2022-10-09T05:53:11.107Z,1.90
2022-10-09T05:55:40.583Z,1.90
2022-10-09T06:01:04.989Z,2.07
2022-10-09T06:03:31.240Z,1.90
2022-10-09T06:05:57.589Z,2.00
2022-10-09T06:08:23.927Z,1.80
2022-10-09T06:10:50.262Z,2.10
2022-10-09T06:16:05.560Z,1.90
2022-10-09T06:18:34.341Z,1.90
2022-10-09T06:21:00.721Z,2.00
2022-10-09T06:23:29.973Z,1.93
2022-10-09T06:25:57.476Z,1.80
2022-10-09T06:28:23.874Z,1.90
2022-10-09T06:30:50.274Z,2.17
2022-10-09T06:33:16.562Z,1.90
2022-10-09T06:35:42.899Z,2.00
2022-10-09T06:38:09.242Z,1.70
2022-10-09T06:40:35.604Z,1.93
2022-10-09T06:43:06.001Z,1.80
2022-10-09T06:45:37.019Z,1.80
2022-10-09T06:48:08.323Z,2.07
2022-10-09T06:53:23.966Z,1.70
2022-10-09T06:55:54.104Z,2.03
2022-10-09T07:01:13.291Z,1.70
2022-10-09T07:04:17.774Z,2.10
2022-10-09T07:06:44.114Z,1.70
2022-10-09T07:12:08.350Z,2.00
2022-10-09T07:14:34.692Z,2.20
2022-10-09T07:19:36.290Z,1.83
2022-10-09T07:22:02.634Z,1.67
2022-10-09T07:24:41.331Z,2.03
2022-10-09T07:27:07.717Z,2.07
2022-10-09T07:29:34.040Z,1.87
2022-10-09T07:32:08.199Z,1.87
2022-10-09T07:34:34.850Z,1.93
2022-10-09T07:37:06.157Z,1.93
2022-10-09T07:39:32.509Z,2.07
2022-10-09T07:42:01.965Z,1.80
2022-10-09T07:44:37.614Z,1.80
2022-10-09T07:47:07.107Z,2.17
2022-10-09T07:49:44.418Z,1.87
2022-10-09T07:55:01.062Z,1.87
2022-10-09T07:57:27.323Z,2.00
2022-10-09T07:59:53.665Z,1.80
2022-10-09T08:02:35.323Z,2.10
2022-10-09T08:05:11.055Z,1.93
2022-10-09T08:07:39.203Z,1.80
2022-10-09T08:10:11.952Z,2.30
2022-10-09T08:12:38.316Z,1.87
2022-10-09T08:15:11.782Z,1.97
2022-10-09T08:17:38.082Z,1.90
2022-10-09T08:20:06.063Z,1.93
2022-10-09T08:22:36.041Z,2.00
2022-10-09T08:25:02.382Z,1.90
2022-10-09T08:27:31.905Z,1.97
2022-10-09T08:29:58.233Z,1.70
2022-10-09T08:37:59.415Z,1.77
2022-10-09T08:40:25.795Z,1.77
2022-10-09T08:42:52.368Z,1.80
2022-10-09T08:45:18.483Z,1.80
2022-10-09T08:50:31.336Z,1.80
2022-10-09T08:52:57.722Z,1.83
2022-10-09T08:55:24.021Z,2.00
2022-10-09T08:57:50.390Z,1.90
2022-10-09T09:03:03.199Z,1.83
2022-10-09T09:05:29.493Z,1.90
2022-10-09T09:07:55.840Z,2.40
2022-10-09T09:10:22.274Z,2.07
2022-10-09T09:12:48.743Z,2.03
2022-10-09T09:15:30.262Z,1.90
2022-10-09T09:18:01.760Z,1.97
2022-10-09T09:20:29.664Z,2.30
2022-10-09T09:22:58.744Z,2.33
2022-10-09T09:25:23.974Z,1.70
2022-10-09T09:27:50.914Z,2.10
2022-10-09T09:30:17.284Z,2.10
2022-10-09T09:32:44.381Z,2.17
2022-10-09T09:35:10.835Z,2.27
2022-10-09T09:37:37.147Z,2.00
2022-10-09T09:42:29.838Z,2.10
2022-10-09T09:44:56.167Z,2.10
2022-10-09T09:47:22.552Z,2.00
2022-10-09T09:49:48.989Z,2.00
2022-10-09T09:52:15.342Z,2.10
2022-10-09T09:54:41.694Z,2.10
2022-10-09T09:57:13.995Z,2.20
2022-10-09T09:59:34.835Z,2.10
2022-10-09T10:02:01.303Z,2.13
2022-10-09T10:04:27.609Z,2.23
2022-10-09T10:06:53.995Z,1.97
2022-10-09T10:09:20.394Z,1.97
2022-10-09T10:11:46.734Z,2.37
2022-10-09T10:14:13.119Z,2.00
2022-10-09T10:16:39.573Z,2.20
2022-10-09T10:19:05.889Z,2.00
2022-10-09T10:21:32.224Z,2.03
2022-10-09T10:23:58.761Z,1.90
2022-10-09T10:26:25.097Z,2.30
2022-10-09T10:28:51.444Z,2.50
2022-10-09T10:31:17.881Z,2.63
2022-10-09T10:33:44.210Z,2.60
2022-10-09T10:36:10.558Z,1.90
2022-10-09T10:38:37.014Z,2.17
2022-10-09T10:41:03.354Z,2.23
2022-10-09T10:43:29.710Z,1.80
2022-10-09T10:45:56.047Z,2.20
2022-10-09T10:48:22.449Z,2.03
2022-10-09T10:50:48.785Z,2.10
2022-10-09T10:53:15.280Z,2.20
2022-10-09T10:55:41.723Z,2.27
2022-10-09T10:58:08.260Z,2.20
2022-10-09T11:00:34.719Z,2.00
2022-10-09T11:03:01.104Z,2.30
2022-10-09T11:05:27.416Z,2.20
2022-10-09T11:07:57.828Z,2.03
2022-10-09T11:10:20.438Z,1.97
2022-10-09T11:12:48.582Z,2.10
2022-10-09T11:15:13.156Z,2.10
2022-10-09T11:17:39.491Z,1.90
2022-10-09T11:20:05.936Z,2.07
2022-10-09T11:22:32.268Z,1.80
2022-10-09T11:24:58.764Z,2.03
2022-10-09T11:27:25.598Z,2.00
2022-10-09T11:29:52.311Z,2.37
2022-10-09T11:32:18.645Z,1.97
2022-10-09T11:34:45.753Z,2.00
2022-10-09T11:37:12.098Z,2.10
2022-10-09T11:39:38.455Z,2.10
2022-10-09T11:42:04.805Z,2.30
2022-10-09T11:44:31.146Z,2.10
2022-10-09T11:47:01.740Z,1.90
2022-10-09T11:49:24.866Z,2.10
2022-10-09T11:51:51.222Z,2.00
2022-10-09T11:54:17.561Z,1.80
2022-10-09T11:56:43.912Z,1.90
2022-10-09T11:59:10.279Z,2.27
2022-10-09T12:01:38.681Z,1.90
2022-10-09T12:04:02.993Z,2.10
2022-10-09T12:06:29.670Z,2.00
2022-10-09T12:08:56.016Z,1.87
2022-10-09T12:11:22.484Z,1.90
2022-10-09T12:13:48.869Z,1.90
2022-10-09T12:16:15.281Z,2.03
2022-10-09T12:18:41.651Z,1.87
2022-10-09T12:21:08.001Z,2.23
2022-10-09T12:23:34.686Z,2.13
2022-10-09T12:26:00.684Z,2.20
2022-10-09T12:28:27.148Z,2.00
2022-10-09T12:30:53.903Z,1.90
2022-10-09T12:33:20.124Z,1.70
2022-10-09T12:35:46.487Z,2.20
2022-10-09T12:38:12.872Z,2.10
2022-10-09T12:40:39.194Z,2.10
2022-10-09T12:43:05.544Z,1.90
2022-10-09T12:45:31.943Z,2.20
2022-10-09T12:47:58.305Z,2.33
2022-10-09T12:50:24.647Z,2.30
2022-10-09T12:52:51.659Z,1.90
2022-10-09T12:55:17.429Z,2.00
2022-10-09T12:57:43.846Z,2.10
2022-10-09T13:00:10.204Z,2.20
2022-10-09T13:02:36.720Z,2.53
2022-10-09T13:05:02.932Z,2.10
2022-10-09T13:07:29.355Z,2.00
2022-10-09T13:09:55.706Z,1.90
2022-10-09T13:12:22.061Z,2.13
2022-10-09T13:14:48.455Z,1.97
2022-10-09T13:17:14.790Z,2.03
2022-10-09T13:19:41.170Z,2.20
2022-10-09T13:22:07.613Z,2.10
2022-10-09T13:24:33.961Z,2.40
2022-10-09T13:27:00.368Z,2.13
2022-10-09T13:29:26.798Z,2.10
2022-10-09T13:31:53.147Z,2.20
2022-10-09T13:34:19.560Z,2.10
2022-10-09T13:36:45.993Z,2.17
2022-10-09T13:39:12.355Z,2.20
2022-10-09T13:41:38.704Z,1.80
2022-10-09T13:44:05.055Z,2.17
2022-10-09T13:46:31.489Z,2.30
2022-10-09T13:48:57.796Z,1.87
2022-10-09T13:51:24.206Z,2.30
2022-10-09T13:53:50.692Z,1.90
2022-10-09T13:56:17.008Z,2.30
2022-10-09T13:58:43.922Z,1.97
2022-10-09T14:01:10.419Z,2.20
2022-10-09T14:03:36.685Z,1.90
2022-10-09T14:06:03.039Z,2.10
2022-10-09T14:08:29.404Z,1.80
2022-10-09T14:10:55.794Z,2.00
2022-10-09T14:13:22.140Z,2.00
2022-10-09T14:15:48.486Z,1.90
2022-10-09T14:18:14.836Z,2.30
2022-10-09T14:20:41.196Z,2.03
2022-10-09T14:23:07.563Z,2.10
2022-10-09T14:25:33.909Z,2.10
2022-10-09T14:28:00.278Z,2.10
2022-10-09T14:30:26.625Z,2.00
2022-10-09T14:32:52.991Z,1.83
2022-10-09T14:35:21.555Z,2.20
2022-10-09T14:37:45.682Z,2.20
2022-10-09T14:40:12.041Z,2.30
2022-10-09T14:42:38.402Z,1.93
2022-10-09T14:45:04.745Z,2.10
2022-10-09T14:47:31.110Z,2.10
2022-10-09T14:49:57.483Z,2.30
2022-10-09T14:52:23.835Z,2.10
2022-10-09T14:54:50.184Z,2.00
2022-10-09T14:57:16.548Z,2.30
2022-10-09T14:59:42.931Z,2.10
2022-10-09T15:02:09.289Z,1.87
2022-10-09T15:04:35.642Z,2.00
2022-10-09T15:07:02.012Z,2.13
2022-10-09T15:09:28.383Z,1.97
2022-10-09T15:11:54.732Z,2.20
2022-10-09T15:14:23.943Z,2.00
2022-10-09T15:16:50.300Z,2.00
2022-10-09T15:19:16.727Z,2.07
2022-10-09T15:21:43.287Z,2.00
2022-10-09T15:24:09.672Z,2.00
2022-10-09T15:26:36.022Z,2.00
2022-10-09T15:29:03.418Z,1.90
2022-10-09T15:31:29.738Z,2.13
2022-10-09T15:33:58.758Z,2.10
2022-10-09T15:36:23.155Z,2.40
2022-10-09T15:38:49.521Z,2.13
2022-10-09T15:41:16.059Z,2.00
2022-10-09T15:43:42.403Z,2.00
2022-10-09T15:46:08.781Z,1.97
2022-10-09T15:48:35.113Z,1.97
2022-10-09T15:51:07.650Z,2.10
2022-10-09T15:53:33.980Z,2.20
2022-10-09T15:56:02.476Z,2.07
2022-10-09T15:58:28.826Z,2.20
2022-10-09T16:00:55.176Z,2.00
2022-10-09T16:03:34.229Z,1.90
2022-10-09T16:06:10.755Z,2.10
2022-10-09T16:11:26.287Z,2.10
2022-10-09T16:13:57.992Z,1.90
2022-10-09T16:16:24.345Z,2.10
2022-10-09T16:18:51.682Z,2.30
2022-10-09T16:21:18.689Z,1.90
2022-10-09T16:23:47.879Z,1.80
2022-10-09T16:26:14.232Z,2.00
2022-10-09T16:28:50.591Z,2.20
2022-10-09T16:31:16.839Z,1.80
2022-10-09T16:33:43.180Z,1.90
2022-10-09T16:36:09.524Z,1.80
2022-10-09T16:41:22.593Z,2.00
2022-10-09T16:44:01.470Z,2.10
2022-10-09T16:46:28.078Z,2.20
2022-10-09T16:49:02.514Z,2.17
2022-10-09T16:51:28.877Z,1.80
2022-10-09T16:53:55.435Z,2.30
2022-10-09T16:56:21.781Z,2.00
2022-10-09T17:01:23.382Z,2.20
2022-10-09T17:03:49.718Z,2.40
2022-10-09T17:06:16.467Z,1.80
2022-10-09T17:08:42.807Z,2.27
2022-10-09T17:11:09.151Z,2.20
2022-10-09T17:13:35.494Z,2.33
2022-10-09T17:16:06.035Z,2.30
2022-10-09T17:18:32.394Z,2.03
2022-10-09T17:21:07.969Z,2.37
2022-10-09T17:26:28.740Z,2.07
2022-10-09T17:28:57.467Z,2.20
2022-10-09T17:31:23.775Z,2.10
2022-10-09T17:33:50.112Z,2.20
2022-10-09T17:36:16.493Z,2.30
2022-10-09T17:38:47.388Z,2.20
2022-10-09T17:41:14.176Z,2.30
2022-10-09T17:43:47.011Z,2.20
2022-10-09T17:46:18.874Z,2.10
2022-10-09T17:48:57.684Z,2.20
2022-10-09T17:51:25.234Z,2.07
2022-10-09T17:54:02.709Z,2.10
2022-10-09T17:56:28.074Z,2.30
2022-10-09T17:59:02.310Z,2.20
2022-10-09T18:01:28.731Z,2.20
2022-10-09T18:06:45.349Z,2.17
2022-10-09T18:09:11.699Z,2.50
2022-10-09T18:11:38.048Z,2.00
2022-10-09T18:14:15.806Z,2.20
2022-10-09T18:16:42.147Z,2.20
2022-10-09T18:19:08.553Z,2.30
2022-10-09T18:21:46.889Z,2.40
2022-10-09T18:24:17.973Z,2.20
2022-10-09T18:26:44.450Z,2.73
2022-10-09T18:32:08.617Z,2.47
2022-10-09T18:34:39.299Z,2.40
2022-10-09T18:37:03.915Z,2.20
2022-10-09T18:39:34.364Z,2.47
2022-10-09T18:42:02.604Z,2.40
2022-10-09T18:44:28.951Z,2.70
2022-10-09T18:46:55.292Z,2.40
2022-10-09T18:49:21.646Z,2.40
2022-10-09T18:51:48.550Z,2.30
2022-10-09T18:54:18.254Z,2.37
2022-10-09T18:56:43.049Z,2.33
2022-10-09T18:59:09.481Z,2.33
2022-10-09T19:01:35.988Z,2.80
2022-10-09T19:04:02.488Z,2.50
2022-10-09T19:06:29.038Z,2.50
2022-10-09T19:08:55.847Z,2.20
2022-10-09T19:11:23.315Z,2.53
2022-10-09T19:13:51.496Z,2.50
2022-10-09T19:16:17.993Z,2.40
2022-10-09T19:18:44.567Z,2.43
2022-10-09T19:21:12.753Z,2.40
2022-10-09T19:23:39.096Z,2.70
2022-10-09T19:26:05.424Z,2.77
2022-10-09T19:28:32.260Z,2.60
2022-10-09T19:30:58.730Z,2.50
2022-10-09T19:33:25.122Z,2.67
2022-10-09T19:35:51.462Z,2.43
2022-10-09T19:38:18.054Z,2.40
2022-10-09T19:40:45.235Z,2.40
2022-10-09T19:43:11.591Z,2.50
2022-10-09T19:45:37.924Z,2.50
2022-10-09T19:48:06.427Z,2.33
2022-10-09T19:50:32.769Z,2.57
2022-10-09T19:52:59.976Z,2.80
2022-10-09T19:55:30.828Z,2.50
2022-10-09T19:57:54.612Z,2.30
2022-10-09T20:00:21.250Z,2.37
2022-10-09T20:02:48.998Z,3.00
2022-10-09T20:05:14.984Z,2.80
2022-10-09T20:07:41.433Z,2.90
2022-10-09T20:10:07.773Z,2.40
2022-10-09T20:12:34.108Z,2.37
2022-10-09T20:15:00.446Z,2.87
2022-10-09T20:17:26.792Z,2.57
2022-10-09T20:19:53.124Z,2.50
2022-10-09T20:22:19.924Z,2.60
2022-10-09T20:24:49.213Z,2.47
2022-10-09T20:27:15.741Z,2.60
2022-10-09T20:29:42.072Z,2.23
2022-10-09T20:32:08.641Z,2.83
2022-10-09T20:34:35.437Z,2.30
2022-10-09T20:37:02.139Z,2.50
2022-10-09T20:39:28.498Z,2.90
2022-10-09T20:41:55.491Z,2.63
2022-10-09T20:44:22.199Z,2.50
2022-10-09T20:46:48.974Z,2.57
2022-10-09T20:49:15.318Z,2.70
2022-10-09T20:51:41.813Z,2.60
2022-10-09T20:54:08.391Z,2.43
2022-10-09T20:56:35.412Z,2.80
2022-10-09T20:59:01.931Z,2.27
2022-10-09T21:01:28.431Z,2.77
2022-10-09T21:03:56.631Z,2.50
2022-10-09T21:06:23.010Z,2.40
2022-10-09T21:08:49.897Z,2.60
2022-10-09T21:11:16.957Z,2.90
2022-10-09T21:13:44.318Z,2.27
2022-10-09T21:16:11.121Z,2.30
2022-10-09T21:18:38.045Z,2.50
2022-10-09T21:21:04.385Z,2.50
2022-10-09T21:23:30.860Z,2.40
2022-10-09T21:25:57.212Z,2.70
2022-10-09T21:28:23.757Z,2.57
2022-10-09T21:30:50.212Z,2.50
2022-10-09T21:33:16.924Z,2.10
2022-10-09T21:35:43.273Z,2.57
2022-10-09T21:38:09.606Z,2.60
2022-10-09T21:40:35.942Z,2.10
2022-10-09T21:43:02.278Z,2.70
2022-10-09T21:45:29.030Z,2.70
2022-10-09T21:47:55.393Z,2.50
2022-10-09T21:50:21.728Z,2.50
2022-10-09T21:52:48.395Z,2.60
2022-10-09T21:55:14.428Z,2.77
2022-10-09T21:57:40.826Z,2.70
2022-10-09T22:00:07.185Z,2.30
2022-10-09T22:02:33.766Z,2.30
2022-10-09T22:05:00.249Z,2.40
2022-10-09T22:07:26.569Z,3.00
2022-10-09T22:09:53.082Z,2.60
2022-10-09T22:12:19.685Z,2.60
2022-10-09T22:14:46.419Z,2.67
2022-10-09T22:17:13.498Z,2.50
2022-10-09T22:19:39.842Z,2.90
2022-10-09T22:22:07.192Z,2.60
2022-10-09T22:24:33.777Z,2.50
2022-10-09T22:27:00.130Z,2.90
2022-10-09T22:29:26.494Z,2.53
2022-10-09T22:31:52.886Z,2.60
2022-10-09T22:34:22.589Z,2.43
2022-10-09T22:36:48.959Z,2.37
2022-10-09T22:39:15.327Z,2.87
2022-10-09T22:41:41.682Z,2.60
2022-10-09T22:44:08.084Z,2.30
2022-10-09T22:46:34.413Z,2.63
2022-10-09T22:49:02.769Z,2.40
2022-10-09T22:51:31.803Z,2.80
2022-10-09T22:54:00.967Z,2.60
2022-10-09T22:56:27.967Z,2.50
2022-10-09T22:58:55.206Z,2.60
2022-10-09T23:01:22.875Z,2.93
2022-10-09T23:03:49.830Z,2.50
2022-10-09T23:06:16.569Z,2.30
2022-10-09T23:08:42.960Z,2.87
2022-10-09T23:11:16.153Z,2.50
2022-10-09T23:13:43.233Z,2.90
2022-10-09T23:16:10.670Z,2.60
2022-10-09T23:18:39.463Z,2.70
2022-10-09T23:21:05.805Z,2.50
2022-10-09T23:23:32.329Z,2.70
2022-10-09T23:25:59.741Z,2.70
2022-10-09T23:28:27.494Z,3.07
2022-10-09T23:30:54.021Z,2.50
2022-10-09T23:33:20.332Z,2.60
2022-10-09T23:35:46.671Z,2.60
2022-10-09T23:38:13.930Z,2.47
2022-10-09T23:40:41.221Z,2.80
2022-10-09T23:43:07.540Z,2.63
2022-10-09T23:45:33.884Z,2.67
2022-10-09T23:48:00.217Z,2.67
2022-10-09T23:50:26.561Z,2.73
2022-10-09T23:52:54.416Z,2.70
2022-10-09T23:55:21.453Z,2.77
2022-10-09T23:57:51.667Z,3.00
